createdAt,value
2022-09-22T00:02:04.636Z,1.10
2022-09-22T00:04:51.495Z,0.90
2022-09-22T00:07:38.460Z,1.52
2022-09-22T00:10:22.650Z,1.20
2022-09-22T00:13:10.433Z,1.17
2022-09-22T00:15:50.956Z,1.50
2022-09-22T00:18:37.406Z,1.17
2022-09-22T00:21:20.739Z,1.20
2022-09-22T00:24:08.464Z,1.30
2022-09-22T00:27:04.433Z,1.40
2022-09-22T00:29:44.876Z,1.40
2022-09-22T00:32:31.397Z,1.23
2022-09-22T00:35:11.875Z,1.00
2022-09-22T00:37:58.458Z,1.15
2022-09-22T00:40:38.920Z,1.23
2022-09-22T00:43:31.427Z,1.38
2022-09-22T00:46:22.743Z,1.20
2022-09-22T00:49:13.429Z,1.40
2022-09-22T00:52:00.418Z,1.45
2022-09-22T00:54:41.515Z,1.42
2022-09-22T00:57:31.426Z,2.25
2022-09-22T01:00:14.531Z,1.70
2022-09-22T01:03:05.411Z,1.88
2022-09-22T01:05:47.489Z,1.40
2022-09-22T01:08:36.365Z,1.98
2022-09-22T01:11:23.413Z,1.90
2022-09-22T01:14:22.192Z,1.55
2022-09-22T01:17:12.394Z,1.50
2022-09-22T01:20:21.386Z,2.03
2022-09-22T01:23:32.486Z,1.55
2022-09-22T01:26:33.359Z,2.03
2022-09-22T01:29:42.484Z,1.70
2022-09-22T01:32:29.359Z,2.20
2022-09-22T01:35:23.434Z,2.15
2022-09-22T01:38:10.341Z,3.22
2022-09-22T01:41:09.518Z,1.60
2022-09-22T01:44:02.350Z,2.05
2022-09-22T01:46:54.324Z,1.60
2022-09-22T01:49:40.014Z,1.67
2022-09-22T01:52:34.313Z,1.70
2022-09-22T01:55:31.997Z,1.60
2022-09-22T01:58:25.326Z,1.88
2022-09-22T02:01:29.431Z,1.50
2022-09-22T02:04:16.431Z,1.75
2022-09-22T02:07:13.343Z,1.67
2022-09-22T02:10:03.342Z,1.70
2022-09-22T02:12:44.082Z,1.60
2022-09-22T02:15:51.354Z,2.00
2022-09-22T02:19:11.850Z,1.95
2022-09-22T02:21:54.285Z,2.08
2022-09-22T02:24:52.298Z,1.77
2022-09-22T02:27:46.308Z,1.35
2022-09-22T02:30:34.296Z,1.33
2022-09-22T02:33:14.347Z,1.40
2022-09-22T02:36:21.310Z,1.60
2022-09-22T02:39:49.268Z,1.42
2022-09-22T02:42:36.595Z,1.50
2022-09-22T02:45:31.263Z,1.85
2022-09-22T02:48:37.249Z,2.15
2022-09-22T02:51:18.492Z,2.50
2022-09-22T02:54:05.377Z,2.00
2022-09-22T02:56:45.552Z,1.58
2022-09-22T02:59:32.258Z,1.73
2022-09-22T03:02:12.340Z,1.60
2022-09-22T03:04:59.277Z,1.73
2022-09-22T03:25:54.882Z,1.67
2022-09-22T03:28:35.646Z,2.20
2022-09-22T03:31:23.997Z,2.22
2022-09-22T03:34:10.825Z,1.77
2022-09-22T03:36:51.139Z,1.92
2022-09-22T03:39:37.846Z,2.42
2022-09-22T03:42:17.997Z,2.28
2022-09-22T03:45:04.813Z,1.60
2022-09-22T03:47:51.852Z,2.00
2022-09-22T03:50:32.233Z,2.13
2022-09-22T03:53:18.833Z,2.67
2022-09-22T03:56:17.826Z,2.13
2022-09-22T03:59:04.818Z,2.28
2022-09-22T04:01:54.805Z,3.13
2022-09-22T04:04:44.787Z,2.13
2022-09-22T04:07:31.839Z,2.45
2022-09-22T04:10:11.937Z,2.28
2022-09-22T04:12:58.747Z,2.35
2022-09-22T04:15:38.866Z,1.98
2022-09-22T04:18:25.827Z,2.95
2022-09-22T04:21:05.869Z,2.88
2022-09-22T04:23:52.775Z,3.95
2022-09-22T04:26:32.866Z,3.05
2022-09-22T04:29:19.803Z,2.58
2022-09-22T04:31:59.903Z,2.35
2022-09-22T04:34:46.769Z,3.30
2022-09-22T04:37:26.892Z,2.63
2022-09-22T04:40:13.819Z,2.70
2022-09-22T04:42:53.958Z,2.17
2022-09-22T04:45:40.783Z,2.63
2022-09-22T04:48:28.779Z,2.85
2022-09-22T04:51:15.761Z,2.05
2022-09-22T04:54:02.748Z,2.72
2022-09-22T04:56:43.334Z,3.00
2022-09-22T04:59:29.750Z,2.60
2022-09-22T05:02:16.751Z,2.40
2022-09-22T05:04:56.836Z,2.40
2022-09-22T05:07:48.752Z,2.72
2022-09-22T05:10:34.504Z,2.60
2022-09-22T05:13:21.719Z,3.03
2022-09-22T05:16:02.157Z,2.47
2022-09-22T05:18:48.758Z,2.28
2022-09-22T05:21:35.733Z,3.00
2022-09-22T05:24:16.054Z,2.95
2022-09-22T05:27:02.734Z,2.95
2022-09-22T05:29:43.222Z,2.50
2022-09-22T05:32:29.715Z,3.30
2022-09-22T05:35:11.654Z,2.50
2022-09-22T05:38:01.721Z,3.30
2022-09-22T05:40:48.775Z,3.03
2022-09-22T05:43:28.817Z,17.05
2022-09-22T05:46:08.681Z,3.50
2022-09-22T05:48:55.684Z,3.10
2022-09-22T05:51:42.697Z,6.13
2022-09-22T05:54:24.560Z,3.95
2022-09-22T05:57:11.648Z,3.70
2022-09-22T05:59:52.309Z,2.40
2022-09-22T06:02:38.692Z,3.78
2022-09-22T06:05:19.713Z,3.05
2022-09-22T06:08:14.660Z,2.88
2022-09-22T06:13:41.641Z,2.58
2022-09-22T06:16:22.126Z,2.58
2022-09-22T06:19:08.640Z,1.92
2022-09-22T06:21:56.702Z,2.80
2022-09-22T06:24:36.644Z,2.53
2022-09-22T06:27:23.591Z,2.97
2022-09-22T06:30:10.657Z,2.67
2022-09-22T06:32:54.241Z,2.30
2022-09-22T06:35:44.593Z,3.05
2022-09-22T06:38:31.596Z,2.75
2022-09-22T06:41:11.721Z,3.28
2022-09-22T06:44:02.625Z,3.15
2022-09-22T06:46:49.610Z,2.55
2022-09-22T06:49:29.978Z,2.53
2022-09-22T06:52:16.589Z,2.83
2022-09-22T06:55:07.576Z,2.53
2022-09-22T06:57:47.673Z,3.42
2022-09-22T07:00:39.654Z,2.10
2022-09-22T07:03:28.734Z,3.03
2022-09-22T07:06:20.049Z,3.10
2022-09-22T07:09:00.786Z,2.67
2022-09-22T07:11:47.596Z,2.50
2022-09-22T07:14:29.195Z,2.22
2022-09-22T07:17:15.571Z,2.38
2022-09-22T07:20:02.528Z,2.28
2022-09-22T07:22:42.972Z,2.47
2022-09-22T07:25:29.571Z,3.20
2022-09-22T07:28:19.530Z,3.50
2022-09-22T07:31:07.611Z,3.33
2022-09-22T07:33:48.025Z,2.25
2022-09-22T07:36:36.536Z,3.10
2022-09-22T07:39:23.525Z,2.40
2022-09-22T07:42:10.563Z,3.25
2022-09-22T07:45:09.364Z,3.42
2022-09-22T07:48:15.548Z,2.67
2022-09-22T07:51:06.573Z,2.75
2022-09-22T07:53:54.517Z,2.50
2022-09-22T07:56:42.680Z,2.72
2022-09-22T07:59:23.503Z,2.85
2022-09-22T08:02:10.570Z,3.47
2022-09-22T08:04:50.632Z,3.03
2022-09-22T08:07:43.504Z,3.35
2022-09-22T08:10:26.110Z,3.20
2022-09-22T08:13:12.466Z,2.78
2022-09-22T08:16:02.546Z,3.10
2022-09-22T08:18:49.471Z,5.10
2022-09-22T08:21:48.482Z,3.58
2022-09-22T08:24:36.495Z,2.42
2022-09-22T08:27:16.639Z,2.10
2022-09-22T08:30:03.451Z,1.92
2022-09-22T08:32:50.466Z,1.85
2022-09-22T08:35:30.868Z,1.50
2022-09-22T08:38:17.465Z,1.30
2022-09-22T08:41:26.482Z,1.27
2022-09-22T08:44:15.855Z,1.35
2022-09-22T08:47:06.475Z,1.67
2022-09-22T08:50:13.085Z,1.17
2022-09-22T08:53:03.465Z,1.10
2022-09-22T08:55:53.423Z,1.02
2022-09-22T08:59:15.406Z,1.05
2022-09-22T09:02:27.597Z,0.77
2022-09-22T09:05:20.423Z,0.60
2022-09-22T09:09:11.074Z,1.00
2022-09-22T09:12:22.412Z,0.80
2022-09-22T09:15:15.404Z,1.25
2022-09-22T09:18:01.753Z,0.90
2022-09-22T09:21:01.406Z,0.65
2022-09-22T09:27:07.411Z,1.35
2022-09-22T09:30:24.397Z,1.85
2022-09-22T09:33:25.474Z,1.00
2022-09-22T09:36:20.395Z,1.50
2022-09-22T09:39:04.199Z,1.98
2022-09-22T09:41:55.450Z,1.20
2022-09-22T09:44:40.538Z,3.60
2022-09-22T09:48:12.390Z,1.33
2022-09-22T09:50:52.454Z,1.38
2022-09-22T09:53:47.365Z,1.67
2022-09-22T09:56:43.388Z,1.50
2022-09-22T09:59:52.391Z,1.67
2022-09-22T10:02:42.465Z,1.42
2022-09-22T10:05:33.377Z,1.42
2022-09-22T10:08:31.380Z,1.20
2022-09-22T10:11:15.050Z,1.65
2022-09-22T10:14:10.360Z,1.00
2022-09-22T10:16:52.124Z,1.33
2022-09-22T10:19:39.360Z,1.38
2022-09-22T10:22:31.373Z,2.10
2022-09-22T10:25:11.452Z,3.05
2022-09-22T10:28:11.326Z,1.40
2022-09-22T10:31:10.429Z,1.42
2022-09-22T10:34:05.361Z,1.85
2022-09-22T10:36:58.344Z,1.75
2022-09-22T10:40:00.341Z,2.00
2022-09-22T10:42:48.330Z,1.95
2022-09-22T10:46:05.390Z,1.50
2022-09-22T10:48:54.505Z,1.13
2022-09-22T10:52:10.323Z,1.88
2022-09-22T10:55:25.327Z,1.50
2022-09-22T10:58:15.308Z,1.58
2022-09-22T11:01:02.350Z,2.03
2022-09-22T11:03:52.460Z,1.95
2022-09-22T11:07:26.297Z,1.67
2022-09-22T11:11:02.283Z,1.50
2022-09-22T11:14:06.416Z,1.73
2022-09-22T11:16:56.293Z,1.47
2022-09-22T11:19:47.678Z,1.23
2022-09-22T11:22:43.265Z,1.60
2022-09-22T11:25:46.267Z,1.25
2022-09-22T11:28:35.556Z,1.60
2022-09-22T11:31:43.272Z,2.15
2022-09-22T11:34:54.291Z,1.35
2022-09-22T11:37:46.489Z,1.80
2022-09-22T11:43:44.042Z,1.27
2022-09-22T11:46:55.275Z,1.50
2022-09-22T11:50:10.384Z,1.38
2022-09-22T11:53:11.255Z,1.85
2022-09-22T11:56:23.252Z,1.52
2022-09-22T11:59:09.339Z,1.55
2022-09-22T12:01:57.251Z,1.35
2022-09-22T12:04:46.388Z,1.25
2022-09-22T12:07:38.250Z,1.40
2022-09-22T12:10:41.355Z,1.52
2022-09-22T12:13:31.191Z,1.70
2022-09-22T12:16:18.235Z,1.30
2022-09-22T12:19:26.200Z,1.30
2022-09-22T12:22:32.257Z,1.00
2022-09-22T12:25:45.125Z,1.48
2022-09-22T12:28:37.227Z,1.48
2022-09-22T12:31:28.225Z,1.33
2022-09-22T12:34:30.246Z,1.17
2022-09-22T12:37:26.211Z,1.35
2022-09-22T12:40:32.209Z,1.00
2022-09-22T12:43:12.284Z,1.35
2022-09-22T12:46:01.258Z,9.45
2022-09-22T12:48:44.513Z,6.88
2022-09-22T12:51:31.181Z,2.67
2022-09-22T12:54:29.308Z,1.20
2022-09-22T12:57:16.203Z,1.13
2022-09-22T13:00:20.837Z,1.00
2022-09-22T13:03:28.191Z,1.05
2022-09-22T13:06:30.246Z,1.38
2022-09-22T13:09:28.193Z,0.93
2022-09-22T13:12:18.827Z,0.80
2022-09-22T13:15:14.176Z,1.25
2022-09-22T13:17:57.188Z,1.27
2022-09-22T13:20:50.234Z,0.98
2022-09-22T13:23:37.168Z,1.13
2022-09-22T13:26:52.225Z,1.00
2022-09-22T13:29:39.142Z,1.10
2022-09-22T13:32:28.061Z,0.73
2022-09-22T13:35:32.195Z,1.63
2022-09-22T13:38:19.110Z,1.00
2022-09-22T13:41:06.329Z,1.00
2022-09-22T13:43:51.154Z,1.23
2022-09-22T13:46:57.135Z,1.20
2022-09-22T13:49:54.132Z,1.00
2022-09-22T13:52:45.169Z,1.35
2022-09-22T13:55:39.198Z,1.40
2022-09-22T13:58:37.123Z,0.68
2022-09-22T14:01:29.271Z,1.10
2022-09-22T14:04:34.120Z,1.52
2022-09-22T14:10:09.090Z,1.83
2022-09-22T14:12:56.139Z,1.30
2022-09-22T14:15:50.073Z,1.38
2022-09-22T14:18:40.120Z,1.77
2022-09-22T14:21:21.601Z,1.73
2022-09-22T14:24:08.102Z,1.83
2022-09-22T14:27:03.060Z,1.55
2022-09-22T14:29:46.087Z,1.55
2022-09-22T14:32:51.088Z,1.70
2022-09-22T14:38:26.082Z,1.95
2022-09-22T14:41:06.193Z,1.45
2022-09-22T14:43:53.028Z,1.50
2022-09-22T14:46:48.043Z,1.75
2022-09-22T14:49:44.079Z,1.77
2022-09-22T14:52:35.194Z,1.35
2022-09-22T14:55:30.071Z,1.13
2022-09-22T14:58:21.122Z,1.67
2022-09-22T15:01:35.123Z,1.60
2022-09-22T15:04:33.161Z,1.73
2022-09-22T15:07:28.833Z,3.13
2022-09-22T15:10:45.873Z,1.27
2022-09-22T15:27:39.662Z,1.37
2022-09-22T15:30:22.111Z,1.13
2022-09-22T15:33:10.697Z,1.20
2022-09-22T15:36:02.823Z,1.58
2022-09-22T15:38:44.705Z,2.38
2022-09-22T15:41:25.100Z,1.48
2022-09-22T15:44:11.854Z,1.52
2022-09-22T15:46:54.456Z,1.75
2022-09-22T15:49:40.826Z,2.05
2022-09-22T15:52:21.286Z,1.42
2022-09-22T15:55:07.819Z,1.30
2022-09-22T15:57:50.946Z,1.92
2022-09-22T16:00:37.878Z,1.80
2022-09-22T16:03:28.887Z,1.80
2022-09-22T16:06:18.844Z,2.40
2022-09-22T16:08:59.380Z,1.27
2022-09-22T16:11:45.840Z,1.63
2022-09-22T16:14:26.216Z,2.05
2022-09-22T16:17:13.859Z,1.95
2022-09-22T16:19:54.213Z,1.55
2022-09-22T16:22:42.841Z,1.50
2022-09-22T16:25:37.829Z,2.10
2022-09-22T16:28:18.191Z,3.13
2022-09-22T16:31:04.870Z,2.92
2022-09-22T16:33:51.806Z,2.88
2022-09-22T16:36:42.816Z,2.45
2022-09-22T16:39:29.837Z,1.67
2022-09-22T16:42:09.940Z,1.55
2022-09-22T16:44:56.797Z,1.83
2022-09-22T16:47:36.901Z,1.42
2022-09-22T16:50:23.812Z,1.95
2022-09-22T16:53:03.938Z,2.58
2022-09-22T16:55:59.779Z,2.15
2022-09-22T16:58:46.760Z,2.17
2022-09-22T17:01:34.899Z,2.30
2022-09-22T17:04:16.442Z,2.03
2022-09-22T17:07:02.751Z,4.05
2022-09-22T17:09:49.779Z,3.50
2022-09-22T17:12:30.138Z,4.78
2022-09-22T17:15:19.751Z,7.85
2022-09-22T17:18:00.150Z,7.75
2022-09-22T17:20:46.771Z,8.07
2022-09-22T17:23:33.752Z,7.05
2022-09-22T17:26:20.856Z,6.22
2022-09-22T17:29:00.766Z,5.03
2022-09-22T17:31:47.791Z,3.42
2022-09-22T17:34:34.737Z,3.47
2022-09-22T17:37:15.621Z,2.88
2022-09-22T17:40:02.796Z,3.00
2022-09-22T17:42:50.126Z,3.78
2022-09-22T17:45:29.753Z,4.22
2022-09-22T17:48:28.551Z,3.50
2022-09-22T17:51:34.701Z,2.88
2022-09-22T17:54:47.751Z,3.42
2022-09-22T17:57:35.796Z,3.60
2022-09-22T18:00:27.689Z,3.17
2022-09-22T18:03:14.759Z,3.55
2022-09-22T18:06:02.779Z,4.03
2022-09-22T18:08:51.675Z,2.95
2022-09-22T18:11:32.053Z,3.05
2022-09-22T18:14:18.755Z,2.97
2022-09-22T18:17:05.712Z,3.13
2022-09-22T18:19:49.842Z,3.30
2022-09-22T18:22:37.678Z,3.80
2022-09-22T18:25:25.722Z,4.45
2022-09-22T18:28:19.631Z,3.40
2022-09-22T18:31:00.017Z,3.25
2022-09-22T18:33:46.676Z,3.15
2022-09-22T18:36:27.416Z,3.42
2022-09-22T18:39:15.669Z,3.45
2022-09-22T18:42:02.639Z,3.28
2022-09-22T18:45:25.654Z,3.22
2022-09-22T18:48:21.914Z,3.97
2022-09-22T18:51:12.605Z,3.58
2022-09-22T18:54:00.590Z,3.50
2022-09-22T18:56:45.796Z,3.30
2022-09-22T18:59:33.641Z,4.28
2022-09-22T19:02:15.898Z,3.78
2022-09-22T19:05:02.616Z,4.20
2022-09-22T19:07:45.805Z,4.13
2022-09-22T19:10:32.617Z,3.65
2022-09-22T19:13:19.577Z,4.15
2022-09-22T19:16:00.043Z,4.07
2022-09-22T19:18:46.592Z,3.10
2022-09-22T19:21:26.983Z,3.25
2022-09-22T19:24:14.621Z,3.45
2022-09-22T19:27:11.601Z,2.50
2022-09-22T19:29:52.658Z,2.20
2022-09-22T19:32:39.548Z,2.45
2022-09-22T19:35:26.600Z,2.20
2022-09-22T19:38:13.588Z,2.70
2022-09-22T19:40:56.137Z,2.08
2022-09-22T19:43:42.604Z,2.60
2022-09-22T19:46:24.399Z,2.92
2022-09-22T19:49:12.643Z,2.55
2022-09-22T19:51:53.868Z,2.30
2022-09-22T19:54:40.570Z,2.33
2022-09-22T19:57:25.408Z,2.80
2022-09-22T20:00:15.560Z,2.35
2022-09-22T20:03:07.595Z,2.55
2022-09-22T20:05:54.574Z,2.17
2022-09-22T20:12:03.673Z,1.40
2022-09-22T20:14:52.041Z,1.63
2022-09-22T20:17:39.240Z,2.03
2022-09-22T20:20:25.892Z,1.27
2022-09-22T20:26:35.580Z,1.45
2022-09-22T20:29:17.085Z,1.73
2022-09-22T20:32:03.527Z,1.75
2022-09-22T20:34:43.967Z,1.67
2022-09-22T20:37:30.533Z,1.42
2022-09-22T20:40:27.520Z,1.33
2022-09-22T20:43:14.502Z,1.42
2022-09-22T20:46:07.698Z,1.35
2022-09-22T20:48:47.469Z,1.30
2022-09-22T20:51:28.529Z,1.17
2022-09-22T20:54:15.478Z,1.85
2022-09-22T20:56:55.902Z,1.58
2022-09-22T20:59:42.484Z,1.40
2022-09-22T21:02:23.423Z,1.48
2022-09-22T21:05:10.495Z,1.27
2022-09-22T21:08:10.805Z,1.77
2022-09-22T21:11:00.468Z,1.20
2022-09-22T21:13:48.424Z,1.60
2022-09-22T21:16:35.510Z,1.67
2022-09-22T21:19:15.801Z,1.50
2022-09-22T21:22:02.481Z,1.88
2022-09-22T21:24:52.443Z,1.88
2022-09-22T21:27:39.587Z,1.52
2022-09-22T21:30:19.461Z,1.40
2022-09-22T21:32:59.826Z,1.40
2022-09-22T21:35:46.437Z,2.13
2022-09-22T21:38:27.084Z,2.15
2022-09-22T21:41:14.420Z,2.20
2022-09-22T21:43:55.745Z,3.90
2022-09-22T21:46:47.413Z,5.47
2022-09-22T21:49:35.410Z,6.18
2022-09-22T21:52:22.398Z,7.13
2022-09-22T21:55:02.818Z,6.10
2022-09-22T21:57:49.405Z,7.45
2022-09-22T22:00:50.750Z,9.18
2022-09-22T22:03:39.435Z,8.95
2022-09-22T22:06:28.319Z,8.52
2022-09-22T22:09:21.388Z,6.65
2022-09-22T22:12:02.345Z,6.55
2022-09-22T22:14:52.353Z,6.22
2022-09-22T22:17:39.371Z,5.45
2022-09-22T22:20:26.375Z,4.30
2022-09-22T22:23:07.176Z,4.43
2022-09-22T22:25:54.398Z,4.15
2022-09-22T22:28:35.111Z,4.97
2022-09-22T22:31:26.438Z,5.05
2022-09-22T22:34:18.334Z,5.93
2022-09-22T22:37:05.353Z,7.47
2022-09-22T22:39:45.730Z,8.93
2022-09-22T22:42:32.362Z,7.40
2022-09-22T22:45:19.306Z,9.30
2022-09-22T22:47:59.461Z,8.68
2022-09-22T22:50:46.313Z,7.90
2022-09-22T22:53:34.377Z,8.57
2022-09-22T22:56:20.148Z,9.15
2022-09-22T22:59:07.430Z,9.05
2022-09-22T23:01:54.453Z,9.00
2022-09-22T23:04:41.276Z,10.00
2022-09-22T23:07:21.663Z,9.30
2022-09-22T23:10:17.272Z,7.18
2022-09-22T23:12:57.745Z,8.27
2022-09-22T23:15:47.389Z,7.35
2022-09-22T23:18:27.700Z,6.60
2022-09-22T23:21:16.398Z,5.85
2022-09-22T23:24:08.283Z,6.22
2022-09-22T23:26:56.297Z,5.55
2022-09-22T23:29:51.029Z,5.70
2022-09-22T23:32:38.430Z,6.00
2022-09-22T23:35:19.297Z,6.63
2022-09-22T23:38:09.026Z,6.28
2022-09-22T23:40:49.427Z,7.20
2022-09-22T23:43:38.278Z,6.35
2022-09-22T23:46:18.440Z,6.13
2022-09-22T23:49:06.268Z,7.38
2022-09-22T23:51:53.276Z,7.13
2022-09-22T23:54:40.279Z,6.93
2022-09-22T23:57:27.299Z,6.63
